sensor_id;sensor_type;location;lat;lon;timestamp;pressure;altitude;pressure_sealevel;temperature;humidity
73105;BME280;61296;50.526;30.792;2023-06-14T00:14:28;99371.16;;;12.64;87.05
73105;BME280;61296;50.526;30.792;2023-06-14T00:29:48;99381.41;;;12.71;87.40
73105;BME280;61296;50.526;30.792;2023-06-14T00:45:08;99371.94;;;12.58;88.02
73105;BME280;61296;50.526;30.792;2023-06-14T01:00:27;99409.81;;;12.75;88.23
73105;BME280;61296;50.526;30.792;2023-06-14T01:15:47;99389.28;;;12.65;88.10
73105;BME280;61296;50.526;30.792;2023-06-14T01:31:08;99348.69;;;12.45;87.53
73105;BME280;61296;50.526;30.792;2023-06-14T01:46:27;99442.56;;;13.19;86.89
73105;BME280;61296;50.526;30.792;2023-06-14T02:01:47;99330.56;;;12.51;88.05
73105;BME280;61296;50.526;30.792;2023-06-14T02:17:06;99376.69;;;12.89;86.79
73105;BME280;61296;50.526;30.792;2023-06-14T02:32:27;99360.53;;;12.74;84.74
73105;BME280;61296;50.526;30.792;2023-06-14T02:47:46;99364.06;;;12.92;84.22
73105;BME280;61296;50.526;30.792;2023-06-14T03:03:07;99378.50;;;13.85;80.38
73105;BME280;61296;50.526;30.792;2023-06-14T03:18:33;99378.59;;;14.48;78.15
73105;BME280;61296;50.526;30.792;2023-06-14T03:33:55;99441.38;;;15.65;75.99
73105;BME280;61296;50.526;30.792;2023-06-14T03:49:15;99463.44;;;16.74;73.31
73105;BME280;61296;50.526;30.792;2023-06-14T04:04:38;99438.56;;;17.41;69.96
73105;BME280;61296;50.526;30.792;2023-06-14T04:19:59;99374.19;;;17.86;66.64
73105;BME280;61296;50.526;30.792;2023-06-14T04:35:19;99397.16;;;18.46;64.44
73105;BME280;61296;50.526;30.792;2023-06-14T04:50:40;99381.81;;;18.90;62.08
73105;BME280;61296;50.526;30.792;2023-06-14T05:06:00;99390.72;;;19.47;60.46
73105;BME280;61296;50.526;30.792;2023-06-14T05:21:20;99469.84;;;19.85;59.03
73105;BME280;61296;50.526;30.792;2023-06-14T05:36:39;99438.50;;;19.94;58.68
73105;BME280;61296;50.526;30.792;2023-06-14T05:52:00;99444.97;;;19.62;59.01
73105;BME280;61296;50.526;30.792;2023-06-14T06:07:19;99383.41;;;19.08;59.85
73105;BME280;61296;50.526;30.792;2023-06-14T06:22:41;99420.97;;;19.65;59.73
73105;BME280;61296;50.526;30.792;2023-06-14T06:38:00;99380.50;;;20.14;57.83
73105;BME280;61296;50.526;30.792;2023-06-14T06:53:21;99426.84;;;20.54;57.68
73105;BME280;61296;50.526;30.792;2023-06-14T07:08:41;99377.72;;;20.14;58.97
73105;BME280;61296;50.526;30.792;2023-06-14T07:24:00;99429.44;;;20.32;59.04
73105;BME280;61296;50.526;30.792;2023-06-14T07:39:20;99371.06;;;19.96;61.49
73105;BME280;61296;50.526;30.792;2023-06-14T07:54:39;99404.38;;;20.95;59.54
73105;BME280;61296;50.526;30.792;2023-06-14T08:09:59;99431.06;;;21.09;58.39
73105;BME280;61296;50.526;30.792;2023-06-14T08:25:20;99437.31;;;21.13;57.80
73105;BME280;61296;50.526;30.792;2023-06-14T08:40:41;99399.66;;;21.52;56.36
73105;BME280;61296;50.526;30.792;2023-06-14T08:56:02;99375.41;;;22.77;53.50
73105;BME280;61296;50.526;30.792;2023-06-14T09:11:24;99419.84;;;21.35;59.22
73105;BME280;61296;50.526;30.792;2023-06-14T09:26:48;99410.22;;;21.48;58.82
73105;BME280;61296;50.526;30.792;2023-06-14T09:42:16;99360.22;;;21.38;58.91
73105;BME280;61296;50.526;30.792;2023-06-14T09:57:45;99401.00;;;22.04;58.22
73105;BME280;61296;50.526;30.792;2023-06-14T10:13:07;99358.38;;;21.78;55.99
73105;BME280;61296;50.526;30.792;2023-06-14T10:28:29;99404.84;;;22.19;54.42
73105;BME280;61296;50.526;30.792;2023-06-14T10:43:49;99377.19;;;22.22;55.55
73105;BME280;61296;50.526;30.792;2023-06-14T10:59:12;99339.03;;;22.15;53.29
73105;BME280;61296;50.526;30.792;2023-06-14T11:14:31;99359.72;;;22.48;53.45
73105;BME280;61296;50.526;30.792;2023-06-14T11:29:51;99371.94;;;22.64;51.79
73105;BME280;61296;50.526;30.792;2023-06-14T11:45:11;99394.41;;;22.82;50.77
73105;BME280;61296;50.526;30.792;2023-06-14T12:00:31;99379.16;;;22.83;51.75
73105;BME280;61296;50.526;30.792;2023-06-14T12:15:55;99359.88;;;22.85;51.20
73105;BME280;61296;50.526;30.792;2023-06-14T12:31:15;99340.09;;;22.48;51.75
73105;BME280;61296;50.526;30.792;2023-06-14T12:46:36;99369.47;;;23.15;49.81
73105;BME280;61296;50.526;30.792;2023-06-14T13:01:55;99345.72;;;22.98;50.66
73105;BME280;61296;50.526;30.792;2023-06-14T13:17:15;99342.00;;;23.10;48.63
73105;BME280;61296;50.526;30.792;2023-06-14T13:32:35;99293.84;;;22.84;49.84
73105;BME280;61296;50.526;30.792;2023-06-14T13:47:55;99292.63;;;23.03;50.13
73105;BME280;61296;50.526;30.792;2023-06-14T14:03:15;99364.66;;;23.80;49.41
73105;BME280;61296;50.526;30.792;2023-06-14T14:18:35;99316.16;;;23.33;49.50
73105;BME280;61296;50.526;30.792;2023-06-14T14:33:54;99281.56;;;23.09;48.12
73105;BME280;61296;50.526;30.792;2023-06-14T14:49:13;99330.97;;;23.43;50.75
73105;BME280;61296;50.526;30.792;2023-06-14T15:04:32;99273.91;;;22.91;51.11
73105;BME280;61296;50.526;30.792;2023-06-14T15:19:52;99326.56;;;22.96;53.49
73105;BME280;61296;50.526;30.792;2023-06-14T15:35:12;99311.75;;;22.46;54.89
73105;BME280;61296;50.526;30.792;2023-06-14T15:50:31;99310.28;;;22.24;56.32
73105;BME280;61296;50.526;30.792;2023-06-14T16:05:50;99353.66;;;22.19;57.82
73105;BME280;61296;50.526;30.792;2023-06-14T16:21:09;99346.38;;;21.78;59.39
73105;BME280;61296;50.526;30.792;2023-06-14T16:36:29;99356.22;;;21.82;59.58
73105;BME280;61296;50.526;30.792;2023-06-14T16:51:49;99352.03;;;21.65;59.85
73105;BME280;61296;50.526;30.792;2023-06-14T17:07:09;99367.09;;;21.80;59.36
73105;BME280;61296;50.526;30.792;2023-06-14T17:22:28;99366.94;;;21.62;59.53
73105;BME280;61296;50.526;30.792;2023-06-14T17:37:48;99331.84;;;21.26;59.92
73105;BME280;61296;50.526;30.792;2023-06-14T17:53:07;99381.25;;;21.42;61.13
73105;BME280;61296;50.526;30.792;2023-06-14T18:08:27;99389.25;;;21.06;62.22
73105;BME280;61296;50.526;30.792;2023-06-14T18:23:46;99410.19;;;20.88;63.28
73105;BME280;61296;50.526;30.792;2023-06-14T18:39:11;99370.63;;;20.52;63.95
73105;BME280;61296;50.526;30.792;2023-06-14T18:54:30;99397.78;;;20.51;64.30
73105;BME280;61296;50.526;30.792;2023-06-14T19:09:49;99329.53;;;19.85;64.70
73105;BME280;61296;50.526;30.792;2023-06-14T19:25:09;99389.53;;;20.06;65.79
73105;BME280;61296;50.526;30.792;2023-06-14T19:40:31;99411.06;;;20.05;65.83
73105;BME280;61296;50.526;30.792;2023-06-14T19:55:50;99454.22;;;20.17;66.36
73105;BME280;61296;50.526;30.792;2023-06-14T20:11:10;99445.91;;;19.72;68.37
73105;BME280;61296;50.526;30.792;2023-06-14T20:26:30;99376.34;;;19.19;68.58
73105;BME280;61296;50.526;30.792;2023-06-14T20:41:50;99378.34;;;19.02;70.10
73105;BME280;61296;50.526;30.792;2023-06-14T20:57:10;99447.94;;;19.22;71.99
73105;BME280;61296;50.526;30.792;2023-06-14T21:12:30;99408.47;;;18.91;72.95
73105;BME280;61296;50.526;30.792;2023-06-14T21:27:49;99326.59;;;18.36;73.71
73105;BME280;61296;50.526;30.792;2023-06-14T21:43:09;99342.06;;;18.37;74.35
73105;BME280;61296;50.526;30.792;2023-06-14T21:58:29;99328.91;;;18.22;75.52
73105;BME280;61296;50.526;30.792;2023-06-14T22:13:48;99318.91;;;17.88;77.27
73105;BME280;61296;50.526;30.792;2023-06-14T22:29:08;99352.84;;;17.79;78.26
73105;BME280;61296;50.526;30.792;2023-06-14T22:44:27;99370.50;;;17.73;80.10
73105;BME280;61296;50.526;30.792;2023-06-14T22:59:51;99396.16;;;17.57;81.32
73105;BME280;61296;50.526;30.792;2023-06-14T23:15:10;99373.34;;;17.46;81.84
73105;BME280;61296;50.526;30.792;2023-06-14T23:30:29;99463.22;;;17.86;81.92
73105;BME280;61296;50.526;30.792;2023-06-14T23:45:52;99372.84;;;17.31;81.96
